createdAt,value
2022-08-03T00:01:01.395Z,101517.81
2022-08-03T00:03:29.731Z,101509.53
2022-08-03T00:06:04.411Z,101512.91
2022-08-03T00:08:33.285Z,101514.25
2022-08-03T00:11:08.990Z,101514.28
2022-08-03T00:13:37.350Z,101512.63
2022-08-03T00:16:05.953Z,101518.53
2022-08-03T00:18:34.332Z,101520.09
2022-08-03T00:21:03.044Z,101519.75
2022-08-03T00:23:51.293Z,101509.06
2022-08-03T00:26:46.350Z,101513.31
2022-08-03T00:29:30.466Z,101510.41
2022-08-03T00:32:01.367Z,101506.88
2022-08-03T00:34:57.367Z,101502.44
2022-08-03T00:37:40.887Z,101507.38
2022-08-03T00:40:32.845Z,101511.47
2022-08-03T00:43:03.080Z,101508.09
2022-08-03T00:45:34.195Z,101506.56
2022-08-03T00:48:03.218Z,101509.44
2022-08-03T00:50:35.770Z,101510.09
2022-08-03T00:53:06.513Z,101508.56
2022-08-03T00:55:34.715Z,101505.03
2022-08-03T00:58:10.161Z,101510.63
2022-08-03T01:00:43.833Z,101510.81
2022-08-03T01:03:31.891Z,101510.97
2022-08-03T01:06:14.628Z,101521.81
2022-08-03T01:08:49.140Z,101514.03
2022-08-03T01:12:00.682Z,101513.38
2022-08-03T01:14:38.039Z,101512.50
2022-08-03T01:17:35.593Z,101504.19
2022-08-03T01:20:09.900Z,101518.97
2022-08-03T01:23:01.796Z,101518.97
2022-08-03T01:25:35.579Z,101523.69
2022-08-03T01:28:31.419Z,101513.19
2022-08-03T01:32:57.983Z,101514.38
2022-08-03T01:35:08.641Z,101508.94
2022-08-03T01:37:41.872Z,101514.00
2022-08-03T01:40:26.396Z,101515.19
2022-08-03T01:44:28.398Z,101513.69
2022-08-03T01:46:05.924Z,101511.28
2022-08-03T01:48:35.730Z,101501.47
2022-08-03T01:51:04.846Z,101513.31
2022-08-03T01:53:37.253Z,101505.34
2022-08-03T01:56:09.674Z,101512.81
2022-08-03T01:58:40.469Z,101513.13
2022-08-03T02:01:10.602Z,101518.41
2022-08-03T02:03:59.599Z,101518.19
2022-08-03T02:07:00.668Z,101519.53
2022-08-03T02:10:04.953Z,101524.81
2022-08-03T02:12:53.757Z,101527.16
2022-08-03T02:15:27.269Z,101523.78
2022-08-03T02:17:57.524Z,101523.06
2022-08-03T02:20:50.823Z,101530.03
2022-08-03T02:26:06.547Z,101534.41
2022-08-03T02:28:38.581Z,101533.84
2022-08-03T02:31:13.426Z,101535.34
2022-08-03T02:33:45.254Z,101533.13
2022-08-03T02:36:15.649Z,101537.00
2022-08-03T02:38:45.515Z,101539.84
2022-08-03T02:41:20.234Z,101544.22
2022-08-03T02:44:17.655Z,101555.69
2022-08-03T02:46:50.278Z,101554.63
2022-08-03T02:49:50.962Z,101553.28
2022-08-03T02:52:27.154Z,101557.63
2022-08-03T02:55:06.765Z,101553.69
2022-08-03T02:57:37.261Z,101557.72
2022-08-03T03:00:07.261Z,101545.50
2022-08-03T03:02:39.135Z,101549.50
2022-08-03T03:05:52.241Z,101544.56
2022-08-03T03:08:03.389Z,101553.19
2022-08-03T03:10:46.810Z,101550.94
2022-08-03T03:13:19.422Z,101559.06
2022-08-03T03:15:48.795Z,101566.31
2022-08-03T03:18:22.587Z,101569.03
2022-08-03T03:20:54.633Z,101562.38
2022-08-03T03:23:24.990Z,101565.19
2022-08-03T03:25:57.206Z,101570.69
2022-08-03T03:28:32.960Z,101566.59
2022-08-03T03:31:03.078Z,101570.06
2022-08-03T03:33:32.187Z,101576.94
2022-08-03T03:36:19.901Z,101577.25
2022-08-03T03:38:48.178Z,101581.41
2022-08-03T03:41:18.265Z,101579.03
2022-08-03T03:43:51.681Z,101587.56
2022-08-03T03:46:24.457Z,101585.44
2022-08-03T03:48:52.942Z,101580.66
2022-08-03T03:51:21.726Z,101591.09
2022-08-03T03:54:01.069Z,101588.13
2022-08-03T03:56:33.844Z,101581.47
2022-08-03T03:59:04.088Z,101580.22
2022-08-03T04:01:33.471Z,101592.38
2022-08-03T04:04:21.951Z,101592.63
2022-08-03T04:07:08.872Z,101600.50
2022-08-03T04:09:58.118Z,101587.47
2022-08-03T04:12:35.577Z,101582.19
2022-08-03T04:15:05.470Z,101584.34
2022-08-03T04:17:37.294Z,101589.34
2022-08-03T04:20:13.657Z,101589.78
2022-08-03T04:22:43.259Z,101599.31
2022-08-03T04:28:21.011Z,101598.59
2022-08-03T04:30:54.894Z,101588.41
2022-08-03T04:33:26.073Z,101593.53
2022-08-03T04:36:20.999Z,101605.50
2022-08-03T04:39:08.840Z,101610.75
2022-08-03T04:42:02.195Z,101615.00
2022-08-03T04:44:28.435Z,101616.84
2022-08-03T04:46:59.377Z,101619.81
2022-08-03T04:49:30.558Z,101614.56
2022-08-03T04:51:59.596Z,101610.31
2022-08-03T04:54:28.389Z,101612.31
2022-08-03T04:56:56.995Z,101612.47
2022-08-03T04:59:25.355Z,101628.50
2022-08-03T05:01:54.135Z,101633.34
2022-08-03T05:04:28.709Z,101632.19
2022-08-03T05:06:57.590Z,101644.72
2022-08-03T05:09:45.097Z,101634.78
2022-08-03T05:12:19.472Z,101626.97
2022-08-03T05:14:47.692Z,101634.94
2022-08-03T05:17:16.494Z,101642.56
2022-08-03T05:19:44.716Z,101648.50
2022-08-03T05:22:12.988Z,101654.34
2022-08-03T05:24:41.271Z,101650.34
2022-08-03T05:27:10.113Z,101654.59
2022-08-03T05:29:38.635Z,101650.75
2022-08-03T05:32:10.200Z,101639.38
2022-08-03T05:34:38.937Z,101643.47
2022-08-03T05:37:08.342Z,101638.34
2022-08-03T05:39:38.945Z,101635.09
2022-08-03T05:42:09.645Z,101631.81
2022-08-03T05:44:39.630Z,101626.69
2022-08-03T05:47:07.887Z,101638.59
2022-08-03T05:49:36.638Z,101633.34
2022-08-03T05:52:13.796Z,101631.53
2022-08-03T05:54:55.932Z,101630.09
2022-08-03T05:57:27.640Z,101630.09
2022-08-03T05:59:58.607Z,101624.09
2022-08-03T06:02:30.002Z,101625.66
2022-08-03T06:05:00.478Z,101628.19
2022-08-03T06:07:29.364Z,101641.41
2022-08-03T06:10:35.775Z,101644.25
2022-08-03T06:12:48.678Z,101634.72
2022-08-03T06:15:17.848Z,101635.59
2022-08-03T06:17:53.244Z,101637.28
2022-08-03T06:20:27.287Z,101619.72
2022-08-03T06:23:00.398Z,101619.41
2022-08-03T06:25:30.148Z,101616.97
2022-08-03T06:28:00.847Z,101619.66
2022-08-03T06:30:29.505Z,101619.81
2022-08-03T06:32:58.078Z,101628.16
2022-08-03T06:35:28.772Z,101625.97
2022-08-03T06:37:58.013Z,101634.56
2022-08-03T06:40:35.532Z,101630.00
2022-08-03T06:43:06.115Z,101635.91
2022-08-03T06:45:40.238Z,101631.03
2022-08-03T06:48:10.853Z,101629.50
2022-08-03T06:50:42.615Z,101642.19
2022-08-03T06:53:21.291Z,101638.66
2022-08-03T06:55:54.924Z,101631.56
2022-08-03T06:58:24.287Z,101632.81
2022-08-03T07:00:52.585Z,101638.31
2022-08-03T07:03:21.525Z,101643.97
2022-08-03T07:05:51.023Z,101642.38
2022-08-03T07:08:20.036Z,101642.66
2022-08-03T07:11:02.873Z,101635.69
2022-08-03T07:13:33.116Z,101631.41
2022-08-03T07:16:01.695Z,101633.34
2022-08-03T07:18:30.512Z,101630.94
2022-08-03T07:21:00.814Z,101625.22
2022-08-03T07:23:29.454Z,101632.94
2022-08-03T07:25:57.854Z,101648.59
2022-08-03T07:28:26.738Z,101640.78
2022-08-03T07:30:54.952Z,101647.25
2022-08-03T07:33:24.055Z,101642.88
2022-08-03T07:35:52.262Z,101636.91
2022-08-03T07:38:21.198Z,101633.63
2022-08-03T07:40:50.133Z,101637.53
2022-08-03T07:43:18.556Z,101637.06
2022-08-03T07:45:46.768Z,101630.13
2022-08-03T07:48:15.035Z,101634.75
2022-08-03T07:50:43.302Z,101633.91
2022-08-03T07:53:11.602Z,101642.81
2022-08-03T07:55:43.000Z,101633.78
2022-08-03T07:58:19.207Z,101631.34
2022-08-03T08:00:51.901Z,101639.66
2022-08-03T08:03:20.729Z,101635.25
2022-08-03T08:05:49.525Z,101626.59
2022-08-03T08:08:17.939Z,101629.41
2022-08-03T08:10:58.534Z,101628.53
2022-08-03T08:13:27.620Z,101626.13
2022-08-03T08:15:55.814Z,101610.97
2022-08-03T08:18:25.061Z,101610.13
2022-08-03T08:20:53.556Z,101616.09
2022-08-03T08:23:44.187Z,101621.47
2022-08-03T08:26:13.912Z,101615.50
2022-08-03T08:28:45.419Z,101610.97
2022-08-03T08:31:13.640Z,101605.13
2022-08-03T08:34:03.298Z,101604.50
2022-08-03T08:36:30.569Z,101609.69
2022-08-03T08:38:58.819Z,101610.13
2022-08-03T08:41:32.164Z,101611.50
2022-08-03T08:44:01.229Z,101610.75
2022-08-03T08:46:33.968Z,101614.78
2022-08-03T08:49:04.810Z,101620.75
2022-08-03T08:51:50.563Z,101612.97
2022-08-03T08:54:29.257Z,101621.50
2022-08-03T08:57:03.161Z,101627.47
2022-08-03T08:59:48.346Z,101629.53
2022-08-03T09:02:18.123Z,101623.06
2022-08-03T09:04:50.412Z,101626.72
2022-08-03T09:07:20.368Z,101620.63
2022-08-03T09:10:10.188Z,101619.88
2022-08-03T09:12:42.583Z,101620.25
2022-08-03T09:15:26.501Z,101617.31
2022-08-03T09:17:57.556Z,101610.97
2022-08-03T09:20:28.002Z,101593.56
2022-08-03T09:23:51.606Z,101604.63
2022-08-03T09:26:02.575Z,101599.41
2022-08-03T09:28:56.577Z,101592.34
2022-08-03T09:32:00.364Z,101588.66
2022-08-03T09:34:32.018Z,101587.94
2022-08-03T09:37:00.338Z,101590.63
2022-08-03T09:39:42.204Z,101597.59
2022-08-03T09:42:23.563Z,101611.84
2022-08-03T09:44:53.484Z,101599.63
2022-08-03T09:47:37.383Z,101592.34
2022-08-03T09:50:13.868Z,101589.16
2022-08-03T09:52:49.792Z,101600.84
2022-08-03T09:56:34.218Z,101606.59
2022-08-03T09:58:13.595Z,101608.44
2022-08-03T10:01:00.663Z,101603.78
2022-08-03T10:03:31.966Z,101596.94
2022-08-03T10:06:00.540Z,101589.41
2022-08-03T10:08:29.443Z,101580.25
2022-08-03T10:10:59.647Z,101579.25
2022-08-03T10:13:29.014Z,101595.84
2022-08-03T10:16:23.238Z,101585.38
2022-08-03T10:18:46.011Z,101587.56
2022-08-03T10:21:18.198Z,101602.91
2022-08-03T10:23:48.050Z,101599.63
2022-08-03T10:26:23.948Z,101600.59
2022-08-03T10:28:57.317Z,101602.56
2022-08-03T10:31:26.134Z,101604.50
2022-08-03T10:33:58.604Z,101598.16
2022-08-03T10:36:31.760Z,101590.09
2022-08-03T10:39:01.974Z,101587.66
2022-08-03T10:41:37.348Z,101596.69
2022-08-03T10:44:12.079Z,101598.63
2022-08-03T10:46:44.948Z,101589.97
2022-08-03T10:49:25.523Z,101594.59
2022-08-03T10:52:13.758Z,101589.47
2022-08-03T10:55:12.401Z,101585.91
2022-08-03T10:57:58.446Z,101585.91
2022-08-03T11:00:31.450Z,101578.97
2022-08-03T11:03:09.756Z,101573.38
2022-08-03T11:05:53.187Z,101577.63
2022-08-03T11:08:25.797Z,101577.41
2022-08-03T11:10:57.076Z,101578.63
2022-08-03T11:13:29.072Z,101576.19
2022-08-03T11:16:02.357Z,101571.66
2022-08-03T11:18:36.363Z,101569.94
2022-08-03T11:21:05.006Z,101562.16
2022-08-03T11:24:04.286Z,101558.63
2022-08-03T11:26:35.401Z,101569.66
2022-08-03T11:29:30.597Z,101560.88
2022-08-03T11:31:58.885Z,101556.00
2022-08-03T11:34:27.669Z,101565.13
2022-08-03T11:37:32.865Z,101555.38
2022-08-03T11:40:02.814Z,101551.44
2022-08-03T11:42:37.532Z,101554.47
2022-08-03T11:45:09.405Z,101551.19
2022-08-03T11:47:51.022Z,101549.59
2022-08-03T11:50:20.769Z,101551.56
2022-08-03T11:52:50.386Z,101554.13
2022-08-03T11:55:22.553Z,101550.56
2022-08-03T11:59:10.743Z,101552.41
2022-08-03T12:00:40.512Z,101547.03
2022-08-03T12:03:12.771Z,101548.88
2022-08-03T12:05:51.964Z,101550.69
2022-08-03T12:08:34.614Z,101552.16
2022-08-03T12:11:07.556Z,101557.53
2022-08-03T12:14:27.421Z,101547.44
2022-08-03T12:16:49.520Z,101555.47
2022-08-03T12:19:18.103Z,101550.84
2022-08-03T12:21:57.326Z,101556.19
2022-08-03T12:24:29.577Z,101550.00
2022-08-03T12:27:00.800Z,101557.16
2022-08-03T12:29:29.730Z,101554.84
2022-08-03T12:32:18.316Z,101554.13
2022-08-03T12:34:48.877Z,101555.53
2022-08-03T12:37:23.200Z,101552.34
2022-08-03T12:40:02.364Z,101550.88
2022-08-03T12:42:36.153Z,101549.28
2022-08-03T12:45:24.446Z,101546.63
2022-08-03T12:48:02.918Z,101552.06
2022-08-03T12:58:17.125Z,101563.25
2022-08-03T14:25:49.955Z,101595.56
2022-08-03T14:32:08.994Z,101592.75
2022-08-03T14:34:20.871Z,101584.84
2022-08-03T14:37:10.623Z,101585.84
2022-08-03T14:42:30.330Z,101591.72
2022-08-03T14:45:02.609Z,101596.38
2022-08-03T14:47:34.341Z,101604.63
2022-08-03T14:50:38.230Z,101596.59
2022-08-03T14:53:09.248Z,101599.13
2022-08-03T14:55:38.602Z,101598.06
2022-08-03T14:58:20.702Z,101598.59
2022-08-03T15:00:51.303Z,101601.91
2022-08-03T15:03:25.403Z,101601.28
2022-08-03T15:06:00.931Z,101612.03
2022-08-03T15:08:29.794Z,101615.03
2022-08-03T15:11:01.251Z,101614.16
2022-08-03T15:13:33.131Z,101620.38
2022-08-03T15:16:03.744Z,101612.66
2022-08-03T15:18:31.986Z,101618.38
2022-08-03T15:21:01.209Z,101625.94
2022-08-03T15:23:29.627Z,101610.94
2022-08-03T15:26:30.292Z,101599.13
2022-08-03T15:28:58.298Z,101605.34
2022-08-03T15:31:27.643Z,101608.66
2022-08-03T15:33:56.045Z,101609.03
2022-08-03T15:36:24.480Z,101611.78
2022-08-03T15:38:53.952Z,101611.06
2022-08-03T15:41:22.357Z,101604.88
2022-08-03T15:43:53.772Z,101609.78
2022-08-03T15:46:32.946Z,101602.59
2022-08-03T15:49:01.343Z,101598.56
2022-08-03T15:51:31.865Z,101608.94
2022-08-03T15:54:05.813Z,101612.94
2022-08-03T15:56:38.650Z,101623.81
2022-08-03T15:59:12.324Z,101623.31
2022-08-03T16:01:42.534Z,101613.53
2022-08-03T16:11:39.794Z,101614.16
2022-08-03T16:14:30.759Z,101606.31
2022-08-03T16:17:10.182Z,101596.50
2022-08-03T16:19:42.194Z,101592.66
2022-08-03T16:25:13.865Z,101591.22
2022-08-03T16:28:00.245Z,101579.91
2022-08-03T16:30:39.558Z,101572.50
2022-08-03T16:33:08.112Z,101573.13
2022-08-03T16:35:36.575Z,101561.41
2022-08-03T16:38:13.190Z,101556.25
2022-08-03T16:40:54.301Z,101562.00
2022-08-03T16:43:36.083Z,101561.16
2022-08-03T16:46:10.653Z,101554.13
2022-08-03T16:48:39.620Z,101560.06
2022-08-03T16:51:07.960Z,101568.53
2022-08-03T16:54:05.286Z,101568.81
2022-08-03T16:56:27.592Z,101565.66
2022-08-03T16:58:58.129Z,101565.13
2022-08-03T17:01:37.639Z,101570.81
2022-08-03T17:04:11.880Z,101572.81
2022-08-03T17:06:45.172Z,101567.00
2022-08-03T17:09:21.839Z,101552.13
2022-08-03T17:11:52.105Z,101547.19
2022-08-03T17:14:28.553Z,101548.44
2022-08-03T17:17:04.124Z,101548.34
2022-08-03T17:19:39.017Z,101541.53
2022-08-03T17:22:12.078Z,101542.06
2022-08-03T17:24:53.819Z,101537.25
2022-08-03T17:28:51.234Z,101543.34
2022-08-03T17:30:39.480Z,101528.56
2022-08-03T17:33:20.243Z,101529.44
2022-08-03T17:35:53.642Z,101528.13
2022-08-03T17:38:31.856Z,101529.69
2022-08-03T17:41:10.637Z,101526.84
2022-08-03T17:44:12.761Z,101525.16
2022-08-03T17:46:39.283Z,101531.41
2022-08-03T17:49:24.954Z,101523.31
2022-08-03T17:52:03.076Z,101527.44
2022-08-03T17:55:57.042Z,101525.47
2022-08-03T17:58:12.976Z,101529.72
2022-08-03T18:01:59.545Z,101528.03
2022-08-03T18:04:10.915Z,101523.06
2022-08-03T18:06:56.238Z,101509.84
2022-08-03T18:10:04.168Z,101503.34
2022-08-03T18:12:41.341Z,101510.84
2022-08-03T18:15:22.322Z,101507.28
2022-08-03T18:17:55.479Z,101506.88
2022-08-03T18:20:51.125Z,101507.56
2022-08-03T18:23:45.669Z,101504.03
2022-08-03T18:26:43.448Z,101503.78
2022-08-03T18:32:16.931Z,101497.06
2022-08-03T18:38:46.827Z,101486.53
2022-08-03T18:41:46.968Z,101481.22
2022-08-03T18:47:51.755Z,101483.72
2022-08-03T18:54:02.364Z,101460.19
2022-08-03T18:56:50.487Z,101458.31
2022-08-03T19:02:51.629Z,101451.06
2022-08-03T19:06:02.293Z,101452.31
2022-08-03T19:09:44.887Z,101446.16
2022-08-03T19:12:44.549Z,101445.91
2022-08-03T19:15:36.018Z,101447.38
2022-08-03T19:18:44.163Z,101433.56
2022-08-03T19:21:17.576Z,101439.03
2022-08-03T19:23:56.242Z,101432.72
2022-08-03T19:26:51.292Z,101431.06
2022-08-03T19:29:59.560Z,101418.06
2022-08-03T19:32:32.172Z,101421.16
2022-08-03T19:41:42.815Z,101398.28
2022-08-03T19:44:42.909Z,101400.41
2022-08-03T19:47:44.772Z,101392.19
2022-08-03T19:50:50.995Z,101392.47
2022-08-03T19:54:16.718Z,101384.81
2022-08-03T20:24:01.646Z,101363.81
2022-08-03T20:27:22.436Z,101356.03
2022-08-03T20:37:13.302Z,101348.22
2022-08-03T20:46:29.640Z,101353.97
2022-08-03T20:49:25.214Z,101342.28
2022-08-03T20:55:20.162Z,101340.38
2022-08-03T20:57:51.817Z,101319.66
2022-08-03T21:00:21.962Z,101319.66
2022-08-03T21:03:15.893Z,101318.66
2022-08-03T21:06:16.330Z,101319.00
2022-08-03T21:09:21.392Z,101309.63
2022-08-03T21:12:18.005Z,101306.06
2022-08-03T21:18:51.709Z,101304.03
2022-08-03T21:22:27.898Z,101305.72
2022-08-03T21:24:19.072Z,101309.97
2022-08-03T21:26:59.436Z,101307.28
2022-08-03T21:29:57.483Z,101309.50
2022-08-03T21:32:45.004Z,101307.16
2022-08-03T21:35:20.944Z,101301.72
2022-08-03T21:38:29.657Z,101298.13
2022-08-03T21:41:02.577Z,101300.19
2022-08-03T21:47:19.293Z,101285.94
2022-08-03T21:50:16.741Z,101275.25
2022-08-03T21:56:43.762Z,101282.38
2022-08-03T21:59:20.036Z,101274.94
2022-08-03T22:02:22.665Z,101272.34
2022-08-03T22:05:08.298Z,101258.78
2022-08-03T22:07:47.574Z,101251.63
2022-08-03T22:10:18.338Z,101249.66
2022-08-03T22:12:51.418Z,101250.94
2022-08-03T22:15:19.925Z,101250.56
2022-08-03T22:18:01.359Z,101238.50
2022-08-03T22:20:40.575Z,101239.72
2022-08-03T22:23:19.574Z,101235.38
2022-08-03T22:25:53.147Z,101230.78
2022-08-03T22:28:28.560Z,101226.56
2022-08-03T22:31:00.476Z,101228.25
2022-08-03T22:33:51.130Z,101232.63
2022-08-03T22:36:19.738Z,101222.34
2022-08-03T22:38:52.726Z,101228.09
2022-08-03T22:41:23.478Z,101221.84
2022-08-03T22:44:08.067Z,101226.94
2022-08-03T22:46:44.335Z,101229.91
2022-08-03T22:49:15.576Z,101225.84
2022-08-03T22:51:48.618Z,101220.09
2022-08-03T22:54:17.937Z,101218.75
2022-08-03T22:56:48.271Z,101217.47
2022-08-03T22:59:41.042Z,101210.69
2022-08-03T23:02:23.270Z,101201.88
2022-08-03T23:06:02.023Z,101203.56
2022-08-03T23:08:13.106Z,101196.69
2022-08-03T23:10:53.378Z,101193.41
2022-08-03T23:13:26.657Z,101194.75
2022-08-03T23:16:09.690Z,101193.13
2022-08-03T23:18:49.452Z,101200.09
2022-08-03T23:22:00.313Z,101198.56
2022-08-03T23:24:29.414Z,101190.59
2022-08-03T23:27:03.759Z,101189.59
2022-08-03T23:29:42.751Z,101191.28
2022-08-03T23:32:16.665Z,101178.41
2022-08-03T23:35:04.900Z,101189.41
2022-08-03T23:38:04.471Z,101185.69
2022-08-03T23:40:33.712Z,101174.78
2022-08-03T23:46:56.542Z,101165.69
2022-08-03T23:49:24.793Z,101158.81
2022-08-03T23:52:03.395Z,101156.31
2022-08-03T23:55:19.437Z,101152.53
2022-08-03T23:58:20.653Z,101159.69
